Time;durP1;ratioP1;P1;durP2;ratioP2;P2;SDS_P1;SDS_P2;PMS_P1;PMS_P2;Temp;Humidity;BMP_temperature;BMP_pressure;BME280_temperature;BME280_humidity;BME280_pressure;Samples;Min_cycle;Max_cycle;Signal;HPM_P1;HPM_P2
2023/07/23 00:00:47;;;;;;;7.30;5.20;;;;;;;16.49;57.13;99028.48;108134;1289;22210;-44
2023/07/23 00:03:14;;;;;;;8.40;5.50;;;;;;;16.46;57.16;99023.79;108125;1306;22391;-47
2023/07/23 00:05:39;;;;;;;8.10;5.00;;;;;;;16.46;57.16;99024.54;108107;1306;22256;-40
2023/07/23 00:08:05;;;;;;;9.20;5.50;;;;;;;16.45;57.19;99018.58;108109;1295;22220;-44
2023/07/23 00:10:30;;;;;;;8.50;4.70;;;;;;;16.43;57.51;99017.30;108111;1306;22204;-45
2023/07/23 00:12:55;;;;;;;6.20;5.00;;;;;;;16.41;57.81;99016.09;108111;1306;22211;-43
2023/07/23 00:15:21;;;;;;;9.80;4.70;;;;;;;16.40;57.47;99013.83;108101;1306;22235;-48
2023/07/23 00:17:47;;;;;;;6.60;4.90;;;;;;;16.37;57.24;99012.21;108109;1306;22110;-47
2023/07/23 00:20:13;;;;;;;9.10;4.90;;;;;;;16.35;58.21;99005.63;108109;1306;22239;-48
2023/07/23 00:22:39;;;;;;;10.00;4.80;;;;;;;16.33;58.28;98999.45;108108;1306;22220;-48
2023/07/23 00:25:06;;;;;;;8.20;5.10;;;;;;;16.30;58.51;98996.46;108097;1306;22305;-44
2023/07/23 00:27:31;;;;;;;4.80;4.10;;;;;;;16.27;58.46;98994.09;108132;1306;22249;-44
2023/07/23 00:29:57;;;;;;;8.00;5.30;;;;;;;16.22;58.43;98990.58;108109;1306;22407;-45
2023/07/23 00:32:22;;;;;;;5.00;4.50;;;;;;;16.16;58.86;98990.60;108093;1306;22976;-42
2023/07/23 00:34:47;;;;;;;6.80;4.50;;;;;;;16.14;58.98;98992.70;108102;1306;22473;-46
2023/07/23 00:37:12;;;;;;;7.80;4.60;;;;;;;16.11;58.98;98988.86;108111;1305;23508;-46
2023/07/23 00:39:38;;;;;;;8.20;4.60;;;;;;;16.08;59.18;98989.77;108112;1286;22234;-50
2023/07/23 00:42:04;;;;;;;8.20;5.20;;;;;;;16.05;59.86;98987.76;108093;1306;22403;-44
2023/07/23 00:44:29;;;;;;;15.80;4.80;;;;;;;16.03;59.56;98989.33;108112;1305;22264;-46
2023/07/23 00:46:57;;;;;;;7.30;5.20;;;;;;;16.00;59.91;98986.42;108100;1305;22240;-44
2023/07/23 00:49:22;;;;;;;10.20;5.30;;;;;;;15.99;60.05;98989.20;108112;1306;22321;-49
2023/07/23 00:51:48;;;;;;;5.80;5.10;;;;;;;15.97;59.79;98993.75;108110;1305;22204;-41
2023/07/23 00:54:13;;;;;;;6.50;4.70;;;;;;;15.96;59.74;98997.34;108113;1306;22404;-49
2023/07/23 00:56:40;;;;;;;6.80;4.50;;;;;;;15.94;59.89;99001.05;108095;1305;22245;-48
2023/07/23 00:59:07;;;;;;;7.20;4.70;;;;;;;15.93;60.02;99002.39;108108;1306;22401;-49
2023/07/23 01:01:32;;;;;;;5.80;4.80;;;;;;;15.93;59.82;98999.90;108077;1306;22236;-45
2023/07/23 01:03:58;;;;;;;7.90;5.00;;;;;;;15.92;59.72;99003.80;108091;1306;22229;-48
2023/07/23 01:06:25;;;;;;;10.50;4.40;;;;;;;15.91;59.62;99002.92;108078;1306;22595;-46
2023/07/23 01:08:56;;;;;;;6.60;4.90;;;;;;;15.90;59.46;99003.68;108110;1305;22210;-43
2023/07/23 01:11:23;;;;;;;8.10;4.90;;;;;;;15.87;60.15;99001.26;108110;1306;23112;-44
2023/07/23 01:13:51;;;;;;;8.40;4.90;;;;;;;15.85;59.42;98999.27;108079;1306;22264;-44
2023/07/23 01:16:17;;;;;;;5.50;4.50;;;;;;;15.82;59.83;99001.29;108099;1306;22220;-43
2023/07/23 01:18:43;;;;;;;6.10;4.50;;;;;;;15.81;60.00;99001.63;108112;1306;22241;-45
2023/07/23 01:21:14;;;;;;;6.40;4.70;;;;;;;15.80;59.53;98996.91;108110;1305;22232;-49
2023/07/23 01:23:40;;;;;;;6.20;4.00;;;;;;;15.77;59.38;98998.42;108140;1305;22471;-46
2023/07/23 01:26:07;;;;;;;9.10;4.40;;;;;;;15.74;59.73;98995.61;108104;1306;22277;-48
2023/07/23 01:28:32;;;;;;;10.70;4.40;;;;;;;15.73;59.91;98991.23;108092;1305;22022;-46
2023/07/23 01:30:58;;;;;;;8.10;4.40;;;;;;;15.73;60.06;98991.97;108080;1306;22229;-47
2023/07/23 01:33:23;;;;;;;8.40;4.60;;;;;;;15.73;59.65;98987.68;108088;1306;23116;-46
2023/07/23 01:35:52;;;;;;;5.10;4.20;;;;;;;15.72;59.87;98985.69;108079;1305;22228;-45
2023/07/23 01:38:17;;;;;;;7.00;4.80;;;;;;;15.69;60.05;98983.22;108099;1306;22429;-43
2023/07/23 01:40:44;;;;;;;6.10;4.30;;;;;;;15.67;60.26;98979.19;108078;1306;22408;-44
2023/07/23 01:43:09;;;;;;;7.90;5.30;;;;;;;15.64;60.14;98974.10;108080;1305;23087;-49
2023/07/23 01:45:34;;;;;;;5.60;4.40;;;;;;;15.64;60.01;98974.33;108081;1306;23488;-50
2023/07/23 01:48:00;;;;;;;6.70;4.50;;;;;;;15.62;60.34;98975.00;108068;1306;22218;-48
2023/07/23 01:50:25;;;;;;;6.10;4.70;;;;;;;15.61;60.53;98976.19;108085;1306;22397;-48
2023/07/23 01:52:50;;;;;;;6.30;4.50;;;;;;;15.59;60.01;98975.98;108053;1305;24245;-44
2023/07/23 01:55:16;;;;;;;8.20;4.60;;;;;;;15.58;60.17;98972.86;108089;1306;23138;-44
2023/07/23 01:57:41;;;;;;;5.60;4.00;;;;;;;15.57;60.36;98975.38;108092;1306;23213;-47
2023/07/23 02:00:08;;;;;;;8.10;4.40;;;;;;;15.56;60.33;98979.77;108063;1305;22264;-52
2023/07/23 02:02:34;;;;;;;7.40;4.20;;;;;;;15.53;60.54;98977.70;108076;1305;22232;-46
2023/07/23 02:04:59;;;;;;;7.50;5.00;;;;;;;15.50;60.58;98981.58;108093;1306;22240;-47
2023/07/23 02:07:24;;;;;;;7.60;4.70;;;;;;;15.51;60.54;98979.77;108099;1306;22189;-47
2023/07/23 02:09:50;;;;;;;8.20;5.20;;;;;;;15.52;60.54;98981.81;108070;1306;22219;-46
2023/07/23 02:12:16;;;;;;;4.70;4.20;;;;;;;15.51;60.60;98979.77;108072;1306;22357;-46
2023/07/23 02:14:41;;;;;;;8.60;4.70;;;;;;;15.53;60.16;98979.61;108074;1306;22223;-43
2023/07/23 02:17:07;;;;;;;9.40;4.50;;;;;;;15.54;59.83;98980.98;108072;1306;22212;-43
2023/07/23 02:19:32;;;;;;;7.10;4.40;;;;;;;15.53;60.30;98977.29;108065;1305;22215;-47
2023/07/23 02:21:58;;;;;;;6.60;4.90;;;;;;;15.51;60.50;98974.60;108069;1306;23211;-45
2023/07/23 02:24:23;;;;;;;6.90;4.50;;;;;;;15.50;60.48;98970.70;108070;1306;22284;-47
2023/07/23 02:26:48;;;;;;;7.10;4.80;;;;;;;15.48;60.85;98971.13;108072;1305;22438;-48
2023/07/23 02:29:13;;;;;;;11.30;4.60;;;;;;;15.45;60.69;98969.98;107871;1306;22934;-41
2023/07/23 02:31:39;;;;;;;5.90;4.80;;;;;;;15.39;61.21;98966.94;108095;1305;22232;-44
2023/07/23 02:34:04;;;;;;;6.50;4.40;;;;;;;15.35;61.23;98964.82;108070;1292;23011;-45
2023/07/23 02:36:30;;;;;;;8.70;4.80;;;;;;;15.33;61.43;98962.83;108068;1305;22435;-46
2023/07/23 02:38:55;;;;;;;6.40;5.00;;;;;;;15.34;61.41;98961.36;108085;1306;22459;-47
2023/07/23 02:43:41;;;;;;;6.30;4.90;;;;;;;15.33;61.62;98962.08;107279;1292;545099;-47
2023/07/23 02:46:06;;;;;;;6.00;4.50;;;;;;;15.28;61.50;98960.79;107707;1310;22416;-44
2023/07/23 02:48:31;;;;;;;5.70;4.70;;;;;;;15.26;61.33;98964.45;107686;1310;22449;-52
2023/07/23 02:50:57;;;;;;;7.20;4.80;;;;;;;15.27;61.40;98965.46;107694;1310;22385;-46
2023/07/23 02:53:22;;;;;;;5.60;4.70;;;;;;;15.26;61.45;98961.66;107663;1310;22742;-50
2023/07/23 02:55:47;;;;;;;6.60;4.90;;;;;;;15.22;61.62;98955.95;107699;1310;22366;-45
2023/07/23 02:58:12;;;;;;;6.20;4.80;;;;;;;15.21;62.02;98953.07;107760;1308;150050;-48
2023/07/23 03:00:41;;;;;;;7.40;4.90;;;;;;;15.19;62.30;98949.80;107880;1308;22245;-48
2023/07/23 03:03:07;;;;;;;7.80;5.10;;;;;;;15.18;62.37;98952.73;107905;1307;22333;-46
2023/07/23 03:05:36;;;;;;;7.30;4.80;;;;;;;15.18;62.26;98950.11;107879;1308;22280;-43
2023/07/23 03:08:03;;;;;;;6.30;4.70;;;;;;;15.15;62.35;98948.33;107905;1308;22388;-43
2023/07/23 03:10:31;;;;;;;8.00;4.70;;;;;;;15.15;62.37;98949.45;107885;1308;22239;-45
2023/07/23 03:12:56;;;;;;;9.90;5.30;;;;;;;15.14;62.33;98948.06;107902;1308;22897;-46
2023/07/23 03:15:22;;;;;;;6.90;4.60;;;;;;;15.14;62.20;98950.77;107701;1308;22209;-45
2023/07/23 03:17:48;;;;;;;9.50;4.60;;;;;;;15.14;62.06;98947.04;107904;1308;22968;-50
2023/07/23 03:20:14;;;;;;;6.30;4.90;;;;;;;15.16;62.19;98944.61;107871;1308;22235;-46
2023/07/23 03:22:40;;;;;;;5.90;4.80;;;;;;;15.16;62.37;98947.80;107906;1308;22953;-42
2023/07/23 03:25:05;;;;;;;10.50;4.30;;;;;;;15.18;62.16;98948.88;107872;1308;23210;-44
2023/07/23 03:27:31;;;;;;;8.60;4.60;;;;;;;15.19;61.71;98947.73;107904;1308;23220;-45
2023/07/23 03:29:56;;;;;;;8.90;4.30;;;;;;;15.20;61.64;98946.02;107892;1308;22395;-45
2023/07/23 03:32:21;;;;;;;5.80;4.00;;;;;;;15.22;61.19;98940.39;107863;1308;22244;-46
2023/07/23 03:34:47;;;;;;;9.00;4.10;;;;;;;15.26;61.22;98939.05;107888;1308;22431;-45
2023/07/23 03:37:12;;;;;;;7.00;4.00;;;;;;;15.29;61.25;98940.20;107884;1307;22243;-46
2023/07/23 03:39:37;;;;;;;4.40;3.70;;;;;;;15.30;60.93;98940.98;107892;1308;22243;-42
2023/07/23 03:42:03;;;;;;;12.20;4.30;;;;;;;15.35;61.01;98938.10;107887;1307;22224;-41
2023/07/23 03:44:29;;;;;;;4.50;4.00;;;;;;;15.40;60.01;98940.58;107893;1308;22398;-49
2023/07/23 03:47:17;;;;;;;9.00;3.70;;;;;;;15.44;59.79;98941.44;107919;1308;22289;-45
2023/07/23 03:49:44;;;;;;;7.20;4.20;;;;;;;15.48;59.79;98939.05;107896;1308;22763;-43
2023/07/23 03:52:10;;;;;;;5.80;3.70;;;;;;;15.51;59.57;98942.48;107900;1308;23030;-48
2023/07/23 03:54:36;;;;;;;9.50;4.00;;;;;;;15.55;59.85;98944.96;107354;1308;22554;-48
2023/07/23 03:57:02;;;;;;;5.90;4.10;;;;;;;15.58;59.80;98945.45;107858;1308;22246;-47
2023/07/23 03:59:37;;;;;;;7.70;3.70;;;;;;;15.60;60.14;98943.73;107886;1308;22264;-48
2023/07/23 04:02:03;;;;;;;5.30;4.10;;;;;;;15.62;59.99;98940.91;107864;1308;22243;-45
2023/07/23 04:04:28;;;;;;;4.50;4.00;;;;;;;15.65;59.77;98939.09;107885;1308;22245;-46
2023/07/23 04:06:54;;;;;;;5.30;3.70;;;;;;;15.70;59.77;98935.31;107901;1308;22250;-42
2023/07/23 04:09:20;;;;;;;4.70;4.00;;;;;;;15.76;59.21;98935.23;107437;1308;22330;-49
2023/07/23 04:11:45;;;;;;;5.50;3.90;;;;;;;15.82;58.90;98937.39;107856;1308;22459;-42
2023/07/23 04:14:11;;;;;;;6.90;3.70;;;;;;;15.88;59.04;98938.29;107899;1308;23493;-45
2023/07/23 04:16:36;;;;;;;7.20;4.20;;;;;;;15.93;58.64;98939.02;107469;1308;22245;-48
2023/07/23 04:19:01;;;;;;;7.70;3.80;;;;;;;15.99;58.58;98936.59;107890;1308;22406;-46
2023/07/23 04:21:27;;;;;;;6.00;3.80;;;;;;;16.05;58.58;98939.98;107872;1308;22438;-49
2023/07/23 04:23:57;;;;;;;8.20;3.60;;;;;;;16.13;58.54;98934.58;107862;1308;22215;-45
2023/07/23 04:26:26;;;;;;;4.20;3.80;;;;;;;16.19;58.33;98933.05;107891;1308;23252;-43
2023/07/23 04:28:52;;;;;;;9.70;3.80;;;;;;;16.25;57.62;98934.30;107886;1308;22959;-50
2023/07/23 04:31:17;;;;;;;6.00;3.40;;;;;;;16.30;57.22;98935.30;107893;1308;22412;-50
2023/07/23 04:33:43;;;;;;;5.70;3.60;;;;;;;16.37;57.22;98931.02;107889;1308;23067;-52
2023/07/23 04:36:08;;;;;;;4.70;3.70;;;;;;;16.44;57.04;98928.20;107882;1308;22268;-50
2023/07/23 04:38:35;;;;;;;7.60;3.60;;;;;;;16.49;56.67;98926.61;107872;1308;22269;-48
2023/07/23 04:41:00;;;;;;;6.80;3.50;;;;;;;16.56;56.88;98927.98;107874;1308;22505;-45
2023/07/23 04:43:25;;;;;;;4.40;3.50;;;;;;;16.64;56.84;98924.82;107889;1308;22250;-43
2023/07/23 04:45:50;;;;;;;5.40;3.50;;;;;;;16.69;56.26;98921.17;107880;1308;22246;-43
2023/07/23 04:48:16;;;;;;;6.60;4.10;;;;;;;16.75;56.15;98924.00;107893;1308;24819;-46
2023/07/23 04:50:42;;;;;;;4.10;3.60;;;;;;;16.82;56.41;98921.79;107879;1308;22253;-50
2023/07/23 04:53:08;;;;;;;4.30;3.20;;;;;;;16.88;56.06;98922.21;107876;1308;22838;-44
2023/07/23 04:55:34;;;;;;;6.40;3.70;;;;;;;16.94;55.85;98924.52;107888;1301;22441;-46
2023/07/23 04:57:59;;;;;;;7.30;3.90;;;;;;;17.02;55.67;98924.23;107893;1308;22229;-45
2023/07/23 05:00:25;;;;;;;5.00;3.60;;;;;;;17.07;55.39;98923.95;107899;1308;22931;-46
2023/07/23 05:02:50;;;;;;;7.90;3.80;;;;;;;17.11;55.05;98919.30;107904;1308;22240;-48
2023/07/23 05:05:16;;;;;;;4.50;3.10;;;;;;;17.16;55.11;98920.11;107696;1308;22237;-45
2023/07/23 05:07:41;;;;;;;4.50;3.20;;;;;;;17.21;55.02;98923.52;107864;1308;22281;-44
2023/07/23 05:10:07;;;;;;;6.10;3.50;;;;;;;17.27;55.02;98921.42;107884;1308;23279;-48
2023/07/23 05:12:33;;;;;;;7.20;3.60;;;;;;;17.31;54.76;98924.30;107900;1308;22476;-49
2023/07/23 05:15:14;;;;;;;9.00;3.90;;;;;;;17.34;54.49;98921.39;107867;1308;22261;-45
2023/07/23 05:17:40;;;;;;;4.90;3.60;;;;;;;17.39;54.66;98923.05;107881;1308;22419;-42
2023/07/23 05:20:07;;;;;;;5.90;3.40;;;;;;;17.41;54.71;98922.30;107896;1308;22279;-48
2023/07/23 05:22:33;;;;;;;5.40;3.30;;;;;;;17.48;54.76;98921.16;107897;1308;22303;-46
2023/07/23 05:24:58;;;;;;;4.50;3.20;;;;;;;17.53;55.07;98919.48;107876;1308;22243;-49
2023/07/23 05:27:26;;;;;;;4.30;3.60;;;;;;;17.61;54.96;98917.50;107873;1308;22236;-47
2023/07/23 05:29:51;;;;;;;;;;;;;;;17.68;55.03;98917.20;107909;1308;22459;-47
2023/07/23 05:32:16;;;;;;;5.10;3.60;;;;;;;17.75;55.17;98919.11;107899;1308;22412;-48
2023/07/23 05:34:41;;;;;;;6.50;3.20;;;;;;;17.83;54.95;98918.50;107902;1308;22235;-48
2023/07/23 05:37:07;;;;;;;7.30;3.20;;;;;;;17.93;54.99;98915.56;107890;1308;23256;-46
2023/07/23 05:39:32;;;;;;;6.20;3.40;;;;;;;18.01;55.31;98914.56;107897;1308;22469;-49
2023/07/23 05:41:57;;;;;;;5.30;3.60;;;;;;;18.13;55.13;98915.08;107876;1308;22219;-46
2023/07/23 05:44:25;;;;;;;9.50;3.20;;;;;;;18.25;55.15;98914.94;107890;1308;22228;-49
2023/07/23 05:46:50;;;;;;;5.40;3.00;;;;;;;18.38;55.19;98913.63;107872;1308;22225;-50
2023/07/23 05:49:16;;;;;;;5.30;3.10;;;;;;;18.54;54.96;98910.36;107885;1308;22312;-43
2023/07/23 05:51:41;;;;;;;4.60;3.20;;;;;;;18.65;54.86;98906.73;107873;1308;23278;-46
2023/07/23 05:54:07;;;;;;;5.80;3.20;;;;;;;18.76;54.92;98909.23;107568;1308;22282;-46
2023/07/23 05:56:32;;;;;;;6.60;3.30;;;;;;;18.87;54.71;98909.83;107863;1308;22974;-45
2023/07/23 05:58:57;;;;;;;3.80;3.40;;;;;;;18.93;54.52;98908.54;107889;1308;22272;-46
2023/07/23 06:01:23;;;;;;;7.20;3.90;;;;;;;18.95;54.49;98904.26;107898;1308;22825;-48
2023/07/23 06:03:48;;;;;;;5.50;3.40;;;;;;;19.04;54.66;98903.03;107888;1308;23097;-43
2023/07/23 06:06:13;;;;;;;5.30;3.30;;;;;;;19.10;54.49;98900.65;107892;1308;22109;-42
2023/07/23 06:08:38;;;;;;;3.60;3.30;;;;;;;19.17;54.56;98899.58;107888;1308;22133;-44
2023/07/23 06:11:04;;;;;;;4.30;3.40;;;;;;;19.26;54.72;98901.80;107891;1308;23420;-43
2023/07/23 06:13:29;;;;;;;4.90;3.40;;;;;;;19.33;54.54;98896.98;107900;1308;22244;-43
2023/07/23 06:15:54;;;;;;;3.40;2.80;;;;;;;19.42;53.99;98894.84;107875;1308;22220;-47
2023/07/23 06:18:19;;;;;;;3.10;2.70;;;;;;;19.51;54.03;98892.69;107880;1308;22484;-52
2023/07/23 06:20:45;;;;;;;4.40;3.20;;;;;;;19.63;54.05;98892.08;107885;1308;22205;-46
2023/07/23 06:23:10;;;;;;;8.70;2.80;;;;;;;19.69;53.41;98889.29;107899;1308;22459;-49
2023/07/23 06:25:35;;;;;;;5.50;2.90;;;;;;;19.76;52.97;98887.80;107731;1308;23512;-49
2023/07/23 06:28:01;;;;;;;3.60;2.70;;;;;;;19.79;52.68;98882.91;107868;1308;22219;-45
2023/07/23 06:30:27;;;;;;;4.50;2.60;;;;;;;19.90;52.55;98883.53;107854;1308;22323;-45
2023/07/23 06:32:52;;;;;;;6.30;3.00;;;;;;;20.02;52.44;98878.05;107860;1308;22246;-49
2023/07/23 06:35:17;;;;;;;6.80;2.80;;;;;;;20.14;52.10;98877.61;107909;1308;22292;-47
2023/07/23 06:37:42;;;;;;;6.80;3.00;;;;;;;20.19;51.88;98876.53;107875;1308;22261;-48
2023/07/23 06:40:08;;;;;;;6.20;3.00;;;;;;;20.26;51.98;98871.91;107896;1308;22228;-48
2023/07/23 06:42:33;;;;;;;2.80;2.50;;;;;;;20.28;51.33;98869.52;107888;1308;22280;-43
2023/07/23 06:44:59;;;;;;;5.70;2.60;;;;;;;20.31;51.11;98867.45;107867;1308;22245;-44
2023/07/23 06:47:24;;;;;;;5.20;3.20;;;;;;;20.38;50.44;98862.34;107892;1308;22414;-50
2023/07/23 06:49:49;;;;;;;3.20;2.80;;;;;;;20.40;50.14;98855.54;107857;1308;22251;-47
2023/07/23 06:52:14;;;;;;;5.00;2.80;;;;;;;20.45;50.06;98853.90;107886;1308;22417;-47
2023/07/23 06:54:42;;;;;;;3.70;3.30;;;;;;;20.55;50.67;98859.16;107875;1308;22909;-51
2023/07/23 06:57:08;;;;;;;3.30;2.80;;;;;;;20.67;50.71;98857.50;107891;1308;22562;-47
2023/07/23 06:59:34;;;;;;;3.40;2.80;;;;;;;20.76;50.09;98858.28;107885;1308;22479;-43
2023/07/23 07:01:59;;;;;;;10.20;3.20;;;;;;;20.79;49.18;98854.42;107886;1308;22186;-48
2023/07/23 07:04:24;;;;;;;6.70;3.20;;;;;;;20.82;49.39;98849.42;107866;1308;22244;-53
2023/07/23 07:06:50;;;;;;;3.60;2.80;;;;;;;20.91;49.78;98847.76;107877;1308;23182;-46
2023/07/23 07:09:15;;;;;;;4.10;2.70;;;;;;;21.00;49.47;98840.80;107862;1308;22245;-50
2023/07/23 07:11:42;;;;;;;7.50;2.90;;;;;;;21.07;49.32;98840.15;107899;1308;22372;-51
2023/07/23 07:14:07;;;;;;;3.00;2.60;;;;;;;21.13;48.96;98839.02;107871;1308;23119;-44
2023/07/23 07:16:32;;;;;;;4.70;2.50;;;;;;;21.25;49.18;98841.69;107712;1308;22216;-49
2023/07/23 07:18:57;;;;;;;10.10;3.00;;;;;;;21.31;48.48;98836.23;107870;1308;22227;-48
2023/07/23 07:21:23;;;;;;;6.50;3.10;;;;;;;21.36;48.11;98829.45;107894;1308;24387;-46
2023/07/23 07:23:48;;;;;;;4.30;2.70;;;;;;;21.47;48.80;98831.14;107876;1308;22484;-47
2023/07/23 07:26:13;;;;;;;3.00;2.70;;;;;;;21.46;47.47;98830.63;107882;1308;22223;-49
2023/07/23 07:28:39;;;;;;;8.20;3.20;;;;;;;21.44;47.16;98830.30;107855;1308;22431;-46
2023/07/23 07:31:04;;;;;;;3.90;3.00;;;;;;;21.44;46.81;98829.26;107882;1308;22340;-43
2023/07/23 07:33:30;;;;;;;6.90;3.10;;;;;;;21.50;47.44;98827.31;107865;1308;24936;-48
2023/07/23 07:35:59;;;;;;;4.20;3.50;;;;;;;21.50;46.95;98824.96;107876;1308;22276;-44
2023/07/23 07:38:26;;;;;;;5.10;3.40;;;;;;;21.50;47.23;98822.83;107875;1308;22224;-49
2023/07/23 07:40:58;;;;;;;3.20;2.70;;;;;;;21.44;46.74;98817.73;107721;1308;22688;-51
2023/07/23 07:43:24;;;;;;;7.50;3.40;;;;;;;21.49;47.13;98817.52;107838;1308;23032;-48
2023/07/23 07:45:53;;;;;;;9.00;5.20;;;;;;;21.57;47.16;98814.00;107882;1308;22544;-49
2023/07/23 07:48:20;;;;;;;7.60;3.70;;;;;;;21.64;46.48;98811.80;107710;1308;22922;-42
2023/07/23 07:50:48;;;;;;;4.50;3.30;;;;;;;21.71;45.81;98805.67;107866;1307;22454;-48
2023/07/23 07:53:14;;;;;;;6.50;3.30;;;;;;;21.79;45.65;98802.98;107880;1308;22271;-49
2023/07/23 07:55:42;;;;;;;7.00;3.30;;;;;;;21.91;45.71;98804.58;107881;1285;22200;-48
2023/07/23 07:58:13;;;;;;;6.10;3.30;;;;;;;22.02;45.43;98802.83;107883;1308;22253;-45
2023/07/23 08:00:39;;;;;;;3.80;2.90;;;;;;;22.15;44.32;98797.66;107875;1308;22228;-45
2023/07/23 08:03:05;;;;;;;4.70;3.60;;;;;;;22.29;43.88;98793.58;107861;1308;23087;-44
2023/07/23 08:05:31;;;;;;;7.00;3.30;;;;;;;22.46;44.49;98794.97;107848;1308;22945;-51
2023/07/23 08:07:57;;;;;;;4.80;3.50;;;;;;;22.64;44.52;98795.05;107892;1308;22220;-46
2023/07/23 08:10:23;;;;;;;5.70;3.30;;;;;;;22.81;44.10;98794.13;107879;1308;22218;-50
2023/07/23 08:12:51;;;;;;;5.00;3.20;;;;;;;22.97;43.26;98794.14;107882;1308;22326;-47
2023/07/23 08:15:16;;;;;;;7.30;2.50;;;;;;;23.08;42.53;98792.23;107847;1308;22239;-48
2023/07/23 08:17:42;;;;;;;4.20;2.70;;;;;;;23.23;42.46;98789.52;107864;1307;22377;-47
2023/07/23 08:20:08;;;;;;;4.50;3.10;;;;;;;23.43;42.71;98790.67;107856;1308;22396;-48
2023/07/23 08:22:34;;;;;;;3.50;2.90;;;;;;;23.58;41.24;98793.58;107832;1308;22409;-47
2023/07/23 08:24:59;;;;;;;4.10;2.80;;;;;;;23.70;40.70;98780.16;107861;1308;22225;-48
2023/07/23 08:27:28;;;;;;;3.90;2.90;;;;;;;23.85;40.33;98777.78;107854;1304;22188;-43
2023/07/23 08:29:53;;;;;;;4.90;3.30;;;;;;;24.08;40.06;98780.84;107884;1308;22225;-54
2023/07/23 08:32:24;;;;;;;4.40;2.90;;;;;;;24.28;39.69;98778.25;107845;1308;22419;-47
2023/07/23 08:34:50;;;;;;;5.30;2.80;;;;;;;24.36;39.03;98773.90;107853;1308;22176;-47
2023/07/23 08:37:15;;;;;;;5.20;2.60;;;;;;;24.42;38.23;98771.23;107873;1308;23112;-48
2023/07/23 08:39:41;;;;;;;3.00;2.70;;;;;;;24.51;37.84;98768.52;107849;1308;22650;-50
2023/07/23 08:42:14;;;;;;;5.70;3.00;;;;;;;24.73;38.15;98771.77;107870;1308;23116;-50
2023/07/23 08:44:45;;;;;;;6.30;2.70;;;;;;;24.90;37.63;98772.69;107855;1308;22394;-46
2023/07/23 08:47:13;;;;;;;3.60;2.50;;;;;;;24.97;37.49;98768.79;107883;1308;22227;-50
2023/07/23 08:49:42;;;;;;;7.30;2.80;;;;;;;25.14;37.95;98765.98;107839;1308;22302;-51
2023/07/23 08:52:12;;;;;;;8.00;2.90;;;;;;;25.29;37.35;98762.12;107860;1308;22317;-47
2023/07/23 08:54:37;;;;;;;4.70;2.90;;;;;;;25.21;36.96;98763.86;107861;1308;22236;-49
2023/07/23 08:57:04;;;;;;;3.80;2.50;;;;;;;25.09;36.86;98760.83;107887;1308;22405;-46
2023/07/23 08:59:31;;;;;;;4.10;2.50;;;;;;;25.11;37.02;98764.17;107869;1308;23044;-49
2023/07/23 09:01:57;;;;;;;3.20;2.40;;;;;;;25.15;37.33;98771.79;107869;1308;23001;-45
2023/07/23 09:04:22;;;;;;;5.00;2.70;;;;;;;25.12;36.99;98764.52;107717;1308;22231;-51
2023/07/23 09:06:48;;;;;;;3.30;2.70;;;;;;;25.17;37.35;98768.11;107838;1308;22303;-47
2023/07/23 09:09:14;;;;;;;5.70;2.40;;;;;;;25.28;37.52;98764.96;107868;1308;22406;-50
2023/07/23 09:11:39;;;;;;;2.80;2.40;;;;;;;25.40;37.13;98765.66;107848;1308;22276;-49
2023/07/23 09:14:09;;;;;;;4.50;2.80;;;;;;;25.58;36.74;98767.65;107863;1308;22450;-45
2023/07/23 09:16:38;;;;;;;3.00;2.40;;;;;;;25.86;36.42;98768.23;107838;1308;22416;-47
2023/07/23 09:19:03;;;;;;;3.30;2.60;;;;;;;26.12;35.67;98768.43;107861;1308;22227;-48
2023/07/23 09:21:28;;;;;;;4.60;3.10;;;;;;;26.22;35.83;98769.21;107844;1308;22234;-49
2023/07/23 09:23:56;;;;;;;3.30;2.70;;;;;;;26.10;35.14;98771.79;107839;1308;22221;-47
2023/07/23 09:26:27;;;;;;;3.60;2.60;;;;;;;26.13;35.66;98773.41;107853;1308;22327;-48
2023/07/23 09:28:57;;;;;;;3.10;2.50;;;;;;;26.16;35.35;98770.41;107853;1308;23207;-47
2023/07/23 09:31:29;;;;;;;5.40;2.50;;;;;;;26.17;35.51;98770.95;107833;1308;23117;-46
2023/07/23 09:33:57;;;;;;;5.70;2.50;;;;;;;26.32;35.43;98768.59;107847;1308;22304;-51
2023/07/23 09:36:26;;;;;;;7.90;2.40;;;;;;;26.32;34.99;98762.53;107846;1308;23115;-51
2023/07/23 09:38:58;;;;;;;3.90;2.80;;;;;;;26.34;34.95;98753.75;107845;1308;22634;-51
2023/07/23 09:41:43;;;;;;;3.20;2.40;;;;;;;26.52;35.16;98750.77;107836;1308;23106;-45
2023/07/23 09:44:28;;;;;;;2.80;2.50;;;;;;;26.82;34.68;98751.02;107867;1289;22267;-50
2023/07/23 09:46:58;;;;;;;3.10;2.70;;;;;;;27.31;34.90;98742.73;107847;1308;22212;-49
2023/07/23 09:49:28;;;;;;;5.10;2.60;;;;;;;27.87;33.51;98742.38;107860;1308;22483;-53
2023/07/23 09:51:53;;;;;;;3.20;2.30;;;;;;;28.35;32.97;98748.81;107864;1308;22236;-45
2023/07/23 09:54:21;;;;;;;4.10;2.20;;;;;;;28.45;31.79;98741.83;107835;1308;22246;-48
2023/07/23 09:56:49;;;;;;;4.80;2.30;;;;;;;28.24;31.61;98737.45;107821;1308;22295;-53
2023/07/23 09:59:17;;;;;;;3.00;2.00;;;;;;;28.13;31.47;98744.92;107831;1308;22244;-46
2023/07/23 10:01:43;;;;;;;2.40;2.20;;;;;;;27.97;32.05;98750.77;107707;1308;22214;-47
2023/07/23 10:04:11;;;;;;;3.40;2.30;;;;;;;27.55;31.94;98756.27;107851;1308;22236;-51
2023/07/23 10:06:37;;;;;;;9.20;2.30;;;;;;;27.20;32.70;98758.30;107883;1308;23069;-51
2023/07/23 10:09:02;;;;;;;2.90;2.30;;;;;;;27.29;33.19;98753.88;107854;1308;22237;-54
2023/07/23 10:11:30;;;;;;;4.10;2.20;;;;;;;27.99;32.18;98741.23;107688;1308;22235;-49
2023/07/23 10:13:56;;;;;;;3.40;2.70;;;;;;;28.58;31.29;98736.95;107846;1308;22231;-47
2023/07/23 10:16:25;;;;;;;2.50;2.00;;;;;;;28.70;31.40;98744.08;107848;1308;23122;-47
2023/07/23 10:18:51;;;;;;;3.90;2.40;;;;;;;28.61;31.48;98739.77;107859;1308;23028;-48
2023/07/23 10:21:21;;;;;;;3.30;2.40;;;;;;;28.40;31.24;98738.48;107856;1308;22232;-49
2023/07/23 10:23:57;;;;;;;2.90;2.30;;;;;;;28.36;31.30;98734.83;107869;1308;22208;-46
2023/07/23 10:26:28;;;;;;;4.70;2.80;;;;;;;28.17;31.24;98729.31;107893;1308;22222;-53
2023/07/23 10:29:11;;;;;;;3.40;2.40;;;;;;;27.93;31.44;98728.95;107713;1308;23176;-50
2023/07/23 10:31:38;;;;;;;4.80;2.60;;;;;;;27.63;31.65;98742.46;107850;1308;22211;-45
2023/07/23 10:34:26;;;;;;;2.60;2.40;;;;;;;27.40;32.05;98740.82;107860;1308;22307;-42
2023/07/23 10:37:13;;;;;;;6.00;2.80;;;;;;;27.27;31.83;98739.88;107844;1308;23103;-48
2023/07/23 10:39:59;;;;;;;3.90;2.70;;;;;;;27.90;30.59;98733.02;107859;1308;22248;-49
2023/07/23 10:42:41;;;;;;;6.00;2.50;;;;;;;28.38;30.17;98729.20;107861;1308;23120;-47
2023/07/23 10:45:23;;;;;;;2.50;2.30;;;;;;;28.45;29.57;98724.48;107869;1308;22811;-49
2023/07/23 10:47:55;;;;;;;4.00;2.30;;;;;;;28.48;28.82;98731.96;107843;1308;22391;-44
2023/07/23 10:50:21;;;;;;;3.60;2.50;;;;;;;28.45;28.44;98730.96;107865;1308;22241;-51
2023/07/23 10:52:52;;;;;;;2.80;2.30;;;;;;;28.74;28.04;98736.52;107842;1308;22232;-46
2023/07/23 10:55:41;;;;;;;4.00;2.40;;;;;;;28.95;27.83;98731.15;107855;1308;22210;-50
2023/07/23 10:58:11;;;;;;;5.70;2.40;;;;;;;29.14;27.37;98729.27;107845;1308;22378;-47
2023/07/23 11:00:45;;;;;;;3.70;2.70;;;;;;;29.00;27.49;98725.67;107848;1288;22227;-51
2023/07/23 11:03:20;;;;;;;2.70;2.50;;;;;;;28.53;27.73;98722.81;107843;1308;22221;-50
2023/07/23 11:05:46;;;;;;;4.40;2.30;;;;;;;28.39;27.93;98716.17;107817;1308;22987;-48
2023/07/23 11:08:15;;;;;;;7.60;2.00;;;;;;;28.72;28.15;98714.41;107853;1308;22399;-47
2023/07/23 11:10:46;;;;;;;2.30;2.10;;;;;;;29.40;28.06;98716.55;107842;1308;22373;-45
2023/07/23 11:13:12;;;;;;;2.50;2.30;;;;;;;29.65;26.93;98716.48;107856;1308;22955;-47
2023/07/23 11:15:38;;;;;;;4.20;2.60;;;;;;;29.66;26.74;98720.57;107876;1308;22438;-46
2023/07/23 11:18:04;;;;;;;2.60;2.40;;;;;;;29.41;26.91;98719.28;107868;1308;22250;-46
2023/07/23 11:20:31;;;;;;;2.50;2.30;;;;;;;29.14;26.96;98709.61;107854;1308;22213;-48
2023/07/23 11:22:59;;;;;;;2.80;2.60;;;;;;;29.33;27.19;98706.95;107872;1308;22197;-48
2023/07/23 11:25:26;;;;;;;3.20;2.40;;;;;;;29.03;27.51;98706.56;107844;1308;22244;-43